Time;durP1;ratioP1;P1;durP2;ratioP2;P2;SDS_P1;SDS_P2;PMS_P1;PMS_P2;Temp;Humidity;BMP_temperature;BMP_pressure;BME280_temperature;BME280_humidity;BME280_pressure;Samples;Min_cycle;Max_cycle;Signal;HPM_P1;HPM_P2
2022/09/25 00:01:27;;;;;;;;;;;12.00;77.30;;;-151.14;100.00;62537.16;4258802;33;19918;-83
2022/09/25 00:03:56;;;;;;;;;;;11.90;77.30;;;-151.14;100.00;62537.16;4259228;33;19967;-84
2022/09/25 00:06:25;;;;;;;;;;;11.90;77.50;;;-151.14;100.00;62537.16;4259317;33;20103;-84
2022/09/25 00:08:54;;;;;;;;;;;11.90;77.30;;;-151.14;100.00;62537.16;4259061;33;19910;-83
2022/09/25 00:11:24;;;;;;;;;;;11.90;77.30;;;-151.14;100.00;62537.16;4260289;33;19903;-84
2022/09/25 00:13:52;;;;;;;;;;;11.90;77.40;;;-151.14;100.00;62537.16;4283008;33;19909;-84
2022/09/25 00:16:25;;;;;;;;;;;11.90;77.40;;;-151.14;100.00;62537.16;4259249;33;19978;-83
2022/09/25 00:21:51;;;;;;;;;;;11.90;77.40;;;-151.14;100.00;62537.16;4226009;33;19902;-83
2022/09/25 00:24:21;;;;;;;;;;;11.90;77.40;;;-151.14;100.00;62537.16;4259590;33;19902;-84
2022/09/25 00:26:49;;;;;;;;;;;11.90;77.30;;;-151.14;100.00;62537.16;4259186;33;20014;-84
2022/09/25 00:29:19;;;;;;;;;;;11.90;77.40;;;-151.14;100.00;62537.16;4259979;33;20000;-84
2022/09/25 00:31:47;;;;;;;;;;;11.90;77.40;;;-151.14;100.00;62537.16;4307137;33;19903;-83
2022/09/25 00:34:17;;;;;;;;;;;11.90;77.40;;;-151.14;100.00;62537.16;4259024;33;20013;-84
2022/09/25 00:36:46;;;;;;;;;;;11.90;77.40;;;-151.14;100.00;62537.16;4260006;33;19902;-84
2022/09/25 00:39:14;;;;;;;;;;;11.90;77.60;;;-151.14;100.00;62537.16;4258799;33;20226;-83
2022/09/25 00:41:43;;;;;;;;;;;11.90;77.50;;;-151.14;100.00;62537.16;4259074;33;19925;-83
2022/09/25 00:44:55;;;;;;;;;;;11.90;77.60;;;-151.14;100.00;62537.16;4259860;33;19909;-83
2022/09/25 00:47:28;;;;;;;;;;;11.90;77.60;;;-151.14;100.00;62537.16;4258872;33;19902;-83
2022/09/25 00:49:58;;;;;;;;;;;11.90;77.50;;;-151.14;100.00;62537.16;4282902;33;19902;-84
2022/09/25 00:52:27;;;;;;;;;;;11.90;77.60;;;-151.14;100.00;62537.16;4258988;33;20005;-83
2022/09/25 00:54:58;;;;;;;;;;;11.90;77.60;;;-151.14;100.00;62537.16;4258799;33;19973;-83
2022/09/25 00:57:29;;;;;;;;;;;11.90;77.60;;;-151.14;100.00;62537.16;4258719;33;19902;-84
2022/09/25 00:59:59;;;;;;;;;;;11.90;77.60;;;-151.14;100.00;62537.16;4261561;33;20135;-84
2022/09/25 01:02:31;;;;;;;;;;;11.90;77.50;;;-151.14;100.00;62537.16;4259405;33;19993;-84
2022/09/25 01:05:03;;;;;;;;;;;11.90;77.60;;;-151.14;100.00;62537.16;4258744;33;19984;-83
2022/09/25 01:07:32;;;;;;;;;;;11.90;77.60;;;-151.14;100.00;62537.16;4258532;33;19903;-83
2022/09/25 01:10:02;;;;;;;;;;;11.90;77.50;;;-151.14;100.00;62537.16;4259730;33;19902;-83
2022/09/25 01:12:30;;;;;;;;;;;11.90;77.50;;;-151.14;100.00;62537.16;4258702;33;19992;-83
2022/09/25 01:14:59;;;;;;;;;;;11.90;77.50;;;-151.14;100.00;62537.16;4258694;33;19992;-83
2022/09/25 01:17:31;;;;;;;;;;;11.90;77.60;;;-151.14;100.00;62537.16;4266699;33;19903;-83
2022/09/25 01:20:09;;;;;;;;;;;11.90;77.60;;;-151.14;100.00;62537.16;4259230;33;19909;-83
2022/09/25 01:22:47;;;;;;;;;;;11.90;77.60;;;-151.14;100.00;62537.16;4258532;33;19902;-83
2022/09/25 01:25:19;;;;;;;;;;;11.90;77.60;;;-151.14;100.00;62537.16;4258494;33;19902;-83
2022/09/25 01:28:01;;;;;;;;;;;11.80;77.50;;;-151.14;100.00;62537.16;4234876;33;19997;-83
2022/09/25 01:30:30;;;;;;;;;;;11.80;77.60;;;-151.14;100.00;62537.16;4258290;33;19962;-83
2022/09/25 01:33:00;;;;;;;;;;;11.90;77.80;;;;;;4274492;33;20393;-84
2022/09/25 01:35:39;;;;;;;;;;;11.80;77.60;;;-151.14;100.00;62537.16;4335951;32;20184;-84
2022/09/25 01:38:18;;;;;;;;;;;11.90;77.60;;;-151.14;100.00;62537.16;4289151;33;19909;-83
2022/09/25 01:40:49;;;;;;;;;;;11.80;77.60;;;-151.14;100.00;62537.16;4265453;33;19980;-83
2022/09/25 01:43:19;;;;;;;;;;;11.80;77.50;;;-151.14;100.00;62537.16;4289594;33;20004;-83
2022/09/25 01:45:51;;;;;;;;;;;11.80;77.60;;;-151.14;100.00;62537.16;4290410;33;20000;-83
2022/09/25 01:48:22;;;;;;;;;;;11.80;77.60;;;-151.14;100.00;62537.16;4265478;33;19985;-83
2022/09/25 01:50:53;;;;;;;;;;;11.80;77.60;;;-151.14;100.00;62537.16;4265431;33;19901;-83
2022/09/25 01:53:25;;;;;;;;;;;11.80;77.50;;;-151.14;100.00;62537.16;4289468;33;19909;-84
2022/09/25 01:55:56;;;;;;;;;;;11.90;77.70;;;-151.14;100.00;62537.16;4289374;33;20004;-83
2022/09/25 01:58:27;;;;;;;;;;;11.80;77.60;;;-151.14;100.00;62537.16;4290248;33;20001;-83
2022/09/25 02:01:01;;;;;;;;;;;11.80;77.50;;;-151.14;100.00;62537.16;4289380;33;20018;-83
2022/09/25 02:03:32;;;;;;;;;;;11.80;77.60;;;-151.14;100.00;62537.16;4265480;33;20013;-83
2022/09/25 02:06:02;;;;;;;;;;;11.80;77.60;;;-151.14;100.00;62537.16;4265531;33;19925;-83
2022/09/25 02:08:34;;;;;;;;;;;11.80;77.50;;;-151.14;100.00;62537.16;4289109;33;19901;-83
2022/09/25 02:11:04;;;;;;;;;;;11.80;77.70;;;-151.14;100.00;62537.16;4289262;33;20008;-84
2022/09/25 02:13:37;;;;;;;;;;;11.80;77.60;;;-151.14;100.00;62537.16;4289154;33;19902;-83
2022/09/25 02:16:10;;;;;;;;;;;11.80;77.60;;;-151.14;100.00;62537.16;4290117;33;19902;-83
2022/09/25 02:21:29;;;;;;;;;;;11.80;77.60;;;-151.14;100.00;62537.16;4289506;33;19969;-83
2022/09/25 02:24:01;;;;;;;;;;;11.80;77.80;;;-151.14;100.00;62537.16;4289164;33;20001;-83
2022/09/25 02:26:30;;;;;;;;;;;11.80;77.60;;;-151.14;100.00;62537.16;4265142;33;20133;-83
2022/09/25 02:28:59;;;;;;;;;;;11.80;77.70;;;-151.14;100.00;62537.16;4313091;33;19909;-83
2022/09/25 02:31:34;;;;;;;;;;;11.80;77.60;;;-151.14;100.00;62537.16;4289272;33;19909;-84
2022/09/25 02:34:03;;;;;;;;;;;11.80;77.60;;;-151.14;100.00;62537.16;4290062;33;20273;-84
2022/09/25 02:36:32;;;;;;;;;;;11.80;77.70;;;-151.14;100.00;62537.16;4265043;33;19902;-83
2022/09/25 02:39:01;;;;;;;;;;;11.80;77.80;;;-151.14;100.00;62537.16;4264935;33;19909;-83
2022/09/25 02:41:44;;;;;;;;;;;11.80;77.70;;;-151.14;100.00;62537.16;4288745;33;19997;-83
2022/09/25 02:44:17;;;;;;;;;;;11.80;77.60;;;-151.14;100.00;62537.16;4289074;33;19902;-84
2022/09/25 02:46:54;;;;;;;;;;;11.80;77.80;;;-151.14;100.00;62537.16;4312976;33;19981;-84
2022/09/25 02:49:29;;;;;;;;;;;11.80;77.60;;;-151.14;100.00;62537.16;4264847;33;20214;-84
2022/09/25 02:52:04;;;;;;;;;;;11.70;77.60;;;-151.14;100.00;62537.16;4337626;32;19977;-84
2022/09/25 02:54:35;;;;;;;;;;;11.80;77.70;;;-151.14;100.00;62537.16;4289805;33;19906;-84
2022/09/25 02:57:08;;;;;;;;;;;11.70;77.70;;;-151.14;100.00;62537.16;4288574;33;20011;-84
2022/09/25 02:59:38;;;;;;;;;;;11.70;77.60;;;-151.14;100.00;62537.16;4264617;33;19902;-84
2022/09/25 03:02:08;;;;;;;;;;;11.70;77.70;;;-151.14;100.00;62537.16;4264869;33;20213;-84
2022/09/25 03:04:37;;;;;;;;;;;11.70;77.80;;;-151.14;100.00;62537.16;4264598;33;20006;-84
2022/09/25 03:07:06;;;;;;;;;;;11.70;77.70;;;-151.14;100.00;62537.16;4289640;33;20221;-83
2022/09/25 03:09:35;;;;;;;;;;;11.70;77.70;;;-151.14;100.00;62537.16;4288487;33;19949;-84
2022/09/25 03:12:04;;;;;;;;;;;11.70;77.80;;;-151.14;100.00;62537.16;4264615;33;19909;-84
2022/09/25 03:14:32;;;;;;;;;;;11.70;77.70;;;-151.14;100.00;62537.16;4289587;33;19996;-84
2022/09/25 03:17:03;;;;;;;;;;;11.70;77.70;;;-151.14;100.00;62537.16;4289394;33;19902;-84
2022/09/25 03:19:33;;;;;;;;;;;11.80;77.80;;;-151.14;100.00;62537.16;4288305;33;19902;-84
2022/09/25 03:22:02;;;;;;;;;;;11.70;77.80;;;-151.14;100.00;62537.16;4312736;33;19902;-84
2022/09/25 03:24:31;;;;;;;;;;;11.70;77.70;;;-151.14;100.00;62537.16;4264589;33;19925;-84
2022/09/25 03:26:59;;;;;;;;;;;11.70;77.70;;;-151.14;100.00;62537.16;4288382;33;19957;-84
2022/09/25 03:29:29;;;;;;;;;;;11.70;77.80;;;-151.14;100.00;62537.16;4288241;33;20272;-84
2022/09/25 03:31:57;;;;;;;;;;;11.70;77.80;;;-151.14;100.00;62537.16;4264280;33;19906;-84
2022/09/25 03:34:26;;;;;;;;;;;11.70;77.80;;;-151.14;100.00;62537.16;4288417;33;20233;-84
2022/09/25 03:36:56;;;;;;;;;;;11.70;77.80;;;-151.14;100.00;62537.16;4288152;33;19909;-83
2022/09/25 03:39:24;;;;;;;;;;;11.70;77.80;;;-151.14;100.00;62537.16;4288355;33;20258;-84
2022/09/25 03:41:53;;;;;;;;;;;11.70;77.90;;;-151.14;100.00;62537.16;4288064;33;19909;-84
2022/09/25 03:44:21;;;;;;;;;;;11.70;77.90;;;-151.14;100.00;62537.16;4288270;33;19902;-84
2022/09/25 03:46:50;;;;;;;;;;;11.70;77.80;;;-151.14;100.00;62537.16;4264121;33;20248;-84
2022/09/25 03:49:18;;;;;;;;;;;11.70;77.90;;;-151.14;100.00;62537.16;4264243;33;20156;-84
2022/09/25 03:51:47;;;;;;;;;;;11.70;77.90;;;-151.14;100.00;62537.16;4264175;33;19902;-84
2022/09/25 03:54:17;;;;;;;;;;;11.70;77.70;;;-151.14;100.00;62537.16;4288182;33;19902;-84
2022/09/25 03:56:46;;;;;;;;;;;11.70;77.80;;;-151.14;100.00;62537.16;4287962;33;19902;-84
2022/09/25 03:59:15;;;;;;;;;;;11.70;77.90;;;-151.14;100.00;62537.16;4263543;33;19902;-84
2022/09/25 04:01:46;;;;;;;;;;;11.70;77.80;;;-151.14;100.00;62537.16;4264269;33;19901;-83
2022/09/25 04:04:14;;;;;;;;;;;11.70;77.80;;;-151.14;100.00;62537.16;4288156;33;19902;-84
2022/09/25 04:06:43;;;;;;;;;;;11.70;77.80;;;-151.14;100.00;62537.16;4259256;33;20022;-84
2022/09/25 04:09:11;;;;;;;;;;;11.60;77.70;;;-151.14;100.00;62537.16;4260166;33;19989;-83
2022/09/25 04:11:42;;;;;;;;;;;11.70;77.80;;;-151.14;100.00;62537.16;4307278;33;19902;-84
2022/09/25 04:14:11;;;;;;;;;;;11.70;77.90;;;-151.14;100.00;62537.16;4260322;33;19902;-83
2022/09/25 04:16:39;;;;;;;;;;;11.70;77.90;;;-151.14;100.00;62537.16;4235398;33;19906;-84
2022/09/25 04:19:08;;;;;;;;;;;11.70;77.90;;;-151.14;100.00;62537.16;4235354;33;20125;-83
2022/09/25 04:21:36;;;;;;;;;;;11.70;77.80;;;-151.14;100.00;62537.16;4260108;33;20016;-84
2022/09/25 04:26:53;;;;;;;;;;;11.70;77.80;;;-151.14;100.00;62537.16;4259123;33;19902;-84
2022/09/25 04:29:23;;;;;;;;;;;11.70;77.80;;;-151.14;100.00;62537.16;4235529;33;19902;-84
2022/09/25 04:34:33;;;;;;;;;;;11.70;77.70;;;-151.14;100.00;62537.16;4236401;33;19997;-84
2022/09/25 04:37:02;;;;;;;;;;;11.70;77.60;;;-151.14;100.00;62537.16;4307049;33;20152;-84
2022/09/25 04:39:31;;;;;;;;;;;11.70;77.30;;;-151.14;100.00;62537.16;4282736;33;19902;-84
2022/09/25 04:42:01;;;;;;;;;;;11.70;77.40;;;-151.14;100.00;62537.16;4258920;33;19902;-84
2022/09/25 04:44:29;;;;;;;;;;;11.80;77.20;;;-151.14;100.00;62537.16;4235488;33;20229;-84
2022/09/25 04:46:58;;;;;;;;;;;11.90;77.10;;;-151.14;100.00;62537.16;4235218;33;19910;-84
2022/09/25 04:49:27;;;;;;;;;;;11.90;76.80;;;-151.14;100.00;62537.16;4235395;33;19902;-83
2022/09/25 04:51:56;;;;;;;;;;;11.90;76.70;;;-151.14;100.00;62537.16;4282767;33;19902;-84
2022/09/25 04:54:24;;;;;;;;;;;11.90;76.80;;;-151.14;100.00;62537.16;4235391;33;20411;-84
2022/09/25 04:56:53;;;;;;;;;;;12.00;76.40;;;-151.14;100.00;62537.16;4235154;33;20001;-83
2022/09/25 04:59:23;;;;;;;;;;;12.20;76.20;;;-151.14;100.00;62537.16;4282638;33;19913;-83
2022/09/25 05:01:51;;;;;;;;;;;12.30;75.40;;;-151.14;100.00;62537.16;4306993;33;19909;-84
2022/09/25 05:04:20;;;;;;;;;;;12.50;74.50;;;-151.14;100.00;62537.16;4306967;33;20237;-84
2022/09/25 05:06:50;;;;;;;;;;;12.60;73.70;;;-151.14;100.00;62537.16;4259652;33;20218;-84
2022/09/25 05:09:18;;;;;;;;;;;12.60;73.30;;;-151.14;100.00;62537.16;4258692;33;19902;-84
2022/09/25 05:11:47;;;;;;;;;;;12.80;73.10;;;-151.14;100.00;62537.16;4260651;33;19986;-84
2022/09/25 05:14:15;;;;;;;;;;;12.90;72.70;;;-151.14;100.00;62537.16;4237771;33;19903;-84
2022/09/25 05:16:46;;;;;;;;;;;13.10;72.00;;;-151.14;100.00;62537.16;4262014;33;19909;-84
2022/09/25 05:19:14;;;;;;;;;;;13.40;71.00;;;-151.14;100.00;62537.16;4262076;33;19902;-84
2022/09/25 05:21:43;;;;;;;;;;;13.90;69.80;;;-151.14;100.00;62537.16;4261197;33;20013;-84
2022/09/25 05:24:12;;;;;;;;;;;14.20;68.00;;;-151.14;100.00;62537.16;4261101;33;19902;-84
2022/09/25 05:26:41;;;;;;;;;;;14.70;66.50;;;-151.14;100.00;62537.16;4237503;33;19982;-84
2022/09/25 05:29:10;;;;;;;;;;;15.20;64.60;;;-151.14;100.00;62537.16;4309244;33;19902;-84
2022/09/25 05:31:38;;;;;;;;;;;15.60;63.00;;;13.99;100.00;62537.16;4260896;33;19902;-84
2022/09/25 05:34:09;;;;;;;;;;;15.90;61.50;;;-151.14;100.00;62537.16;4309131;33;19959;-84
2022/09/25 05:36:37;;;;;;;;;;;16.30;60.20;;;-151.14;100.00;62537.16;4260926;33;19902;-84
2022/09/25 05:39:06;;;;;;;;;;;16.50;59.20;;;-151.14;100.00;62537.16;4261658;33;20016;-84
2022/09/25 05:41:35;;;;;;;;;;;16.60;58.40;;;-151.14;100.00;62537.16;4269333;33;20237;-84
2022/09/25 05:44:08;;;;;;;;;;;16.70;57.90;;;14.64;100.00;62537.16;4289708;33;19902;-84
2022/09/25 05:46:36;;;;;;;;;;;16.80;57.40;;;-151.14;100.00;62537.16;4289677;33;19958;-84
2022/09/25 05:49:05;;;;;;;;;;;16.70;57.00;;;-151.14;100.00;62537.16;4265525;33;20228;-84
2022/09/25 05:51:35;;;;;;;;;;;16.60;57.20;;;-151.14;100.00;62537.16;4313829;33;20001;-84
2022/09/25 05:54:04;;;;;;;;;;;16.50;57.30;;;-151.14;100.00;62537.16;4289438;33;20251;-84
2022/09/25 05:56:32;;;;;;;;;;;16.40;57.30;;;14.41;100.00;62537.16;4265636;33;19961;-83
2022/09/25 05:59:01;;;;;;;;;;;16.20;58.30;;;14.30;100.00;62537.16;4338066;32;20129;-84
2022/09/25 06:01:29;;;;;;;;;;;16.00;59.40;;;-151.14;100.00;62537.16;4289327;33;19902;-84
2022/09/25 06:03:58;;;;;;;;;;;15.70;60.30;;;14.02;100.00;83047.47;4289214;33;19985;-84
2022/09/25 06:06:26;;;;;;;;;;;15.50;61.80;;;-151.14;100.00;62537.16;4265652;33;19909;-83
2022/09/25 06:08:56;;;;;;;;;;;15.30;62.80;;;13.71;100.00;62537.16;4289943;33;19909;-84
2022/09/25 06:11:25;;;;;;;;;;;15.00;63.80;;;13.55;100.00;82982.94;4289447;33;19955;-84
2022/09/25 06:13:56;;;;;;;;;;;14.80;64.80;;;-151.14;100.00;62537.16;4290116;33;19909;-84
2022/09/25 06:16:24;;;;;;;;;;;14.60;65.70;;;-151.14;100.00;62537.16;4290276;33;19902;-84
2022/09/25 06:18:53;;;;;;;;;;;14.40;66.60;;;-151.14;100.00;62537.16;4236551;33;19902;-84
2022/09/25 06:21:21;;;;;;;;;;;14.20;67.30;;;-151.14;100.00;62537.16;4260472;33;19910;-84
2022/09/25 06:23:50;;;;;;;;;;;14.10;68.20;;;-151.14;100.00;62537.16;4260994;33;20134;-84
2022/09/25 06:26:20;;;;;;;;;;;14.00;68.70;;;-151.14;100.00;62537.16;4260566;33;19988;-84
2022/09/25 06:28:48;;;;;;;;;;;14.00;69.40;;;-151.14;100.00;62537.16;4236679;33;19902;-84
2022/09/25 06:31:17;;;;;;;;;;;13.90;69.80;;;-151.14;100.00;62537.16;4284378;33;20032;-84
2022/09/25 06:33:46;;;;;;;;;;;13.80;70.10;;;-151.14;100.00;62537.16;4284596;33;20005;-84
2022/09/25 06:36:14;;;;;;;;;;;13.70;70.30;;;-151.14;100.00;62537.16;4289099;33;20269;-84
2022/09/25 06:38:43;;;;;;;;;;;13.70;70.70;;;-151.14;100.00;62537.16;4312975;33;19901;-84
2022/09/25 06:41:11;;;;;;;;;;;13.60;71.10;;;-151.14;100.00;62537.16;4264990;33;19938;-84
2022/09/25 06:43:41;;;;;;;;;;;13.50;71.50;;;-151.14;100.00;62537.16;4288744;33;19909;-84
2022/09/25 06:46:09;;;;;;;;;;;13.40;71.80;;;-151.14;100.00;62537.16;4313206;33;19902;-84
2022/09/25 06:48:39;;;;;;;;;;;13.30;72.20;;;12.21;100.00;62537.16;4264686;33;20213;-84
2022/09/25 06:51:08;;;;;;;;;;;13.30;72.40;;;-151.14;100.00;62537.16;4290005;33;19916;-84
2022/09/25 06:53:36;;;;;;;;;;;13.20;72.60;;;-151.14;100.00;62537.16;4288822;33;20129;-84
2022/09/25 06:56:05;;;;;;;;;;;13.20;72.90;;;-151.14;100.00;62537.16;4288736;33;19902;-84
2022/09/25 06:58:34;;;;;;;;;;;13.10;73.20;;;12.09;100.00;62537.16;4289560;33;19950;-84
2022/09/25 07:01:09;;;;;;;;;;;13.10;73.40;;;-151.14;100.00;62537.16;4264920;33;20222;-84
2022/09/25 07:03:46;;;;;;;;;;;13.10;73.50;;;-151.14;100.00;62537.16;4288504;33;20231;-84
2022/09/25 07:06:16;;;;;;;;;;;13.10;73.60;;;-151.14;100.00;62537.16;4264801;33;19902;-84
2022/09/25 07:08:46;;;;;;;;;;;13.10;73.60;;;-151.14;100.00;62537.16;4288295;33;19993;-84
2022/09/25 07:11:17;;;;;;;;;;;13.10;73.60;;;-151.14;100.00;62537.16;4337497;32;19902;-84
2022/09/25 07:13:45;;;;;;;;;;;13.10;73.80;;;-151.14;100.00;62537.16;4288582;33;19902;-84
2022/09/25 07:16:16;;;;;;;;;;;13.10;73.70;;;-151.14;100.00;62537.16;4289651;33;19908;-84
2022/09/25 07:18:45;;;;;;;;;;;13.10;73.90;;;-151.14;100.00;62537.16;4288217;33;20015;-84
2022/09/25 07:21:14;;;;;;;;;;;13.10;73.90;;;-151.14;100.00;62537.16;4288532;33;19909;-84
2022/09/25 07:23:43;;;;;;;;;;;13.10;73.90;;;12.10;100.00;62537.16;4288370;33;19902;-84
2022/09/25 07:26:13;;;;;;;;;;;13.00;73.80;;;12.10;100.00;82784.53;4264571;33;20218;-84
2022/09/25 07:28:42;;;;;;;;;;;13.00;73.90;;;-151.14;100.00;62537.16;4264331;33;19909;-84
2022/09/25 07:31:16;;;;;;;;;;;13.00;74.00;;;-151.14;100.00;62537.16;4264509;33;19902;-84
2022/09/25 07:33:45;;;;;;;;;;;13.00;74.00;;;-151.14;100.00;62537.16;4287544;33;20224;-84
2022/09/25 07:36:13;;;;;;;;;;;13.00;74.20;;;-151.14;100.00;62537.16;4264388;33;19924;-84
2022/09/25 07:38:42;;;;;;;;;;;12.90;74.20;;;11.94;100.00;62537.16;4288192;33;19901;-84
2022/09/25 07:41:11;;;;;;;;;;;13.00;74.30;;;11.94;100.00;82762.56;4288217;33;19964;-84
2022/09/25 07:43:41;;;;;;;;;;;13.00;74.40;;;-151.14;100.00;62537.16;4264366;33;19997;-84
2022/09/25 07:46:09;;;;;;;;;;;12.90;74.40;;;11.94;100.00;62537.16;4264421;33;20240;-84
2022/09/25 07:48:39;;;;;;;;;;;12.90;74.40;;;11.94;100.00;62537.16;4264213;33;20021;-84
2022/09/25 07:51:10;;;;;;;;;;;12.90;74.50;;;-151.14;100.00;62537.16;4289187;33;19901;-84
2022/09/25 07:53:40;;;;;;;;;;;13.00;74.40;;;-151.14;100.00;62537.16;4264120;33;19984;-84
2022/09/25 07:56:09;;;;;;;;;;;13.00;74.50;;;12.10;100.00;62537.16;4312342;33;20129;-84
2022/09/25 07:58:37;;;;;;;;;;;13.10;74.50;;;12.10;100.00;62537.16;4264934;33;20233;-85
2022/09/25 08:01:08;;;;;;;;;;;13.10;74.40;;;12.10;100.00;62537.16;4264421;33;20012;-84
2022/09/25 08:03:36;;;;;;;;;;;13.10;74.40;;;12.10;100.00;62537.16;4288962;33;19907;-84
2022/09/25 08:06:08;;;;;;;;;;;13.20;74.40;;;-151.14;100.00;62537.16;4287841;33;19902;-85
2022/09/25 08:08:36;;;;;;;;;;;13.20;74.40;;;-151.14;100.00;62537.16;4287996;33;19902;-84
2022/09/25 08:11:07;;;;;;;;;;;13.20;74.00;;;-151.14;100.00;62537.16;4264092;33;19964;-84
2022/09/25 08:13:36;;;;;;;;;;;13.20;74.00;;;-151.14;100.00;62537.16;4288933;33;20004;-84
2022/09/25 08:16:05;;;;;;;;;;;13.20;74.00;;;-151.14;100.00;62537.16;4288001;33;19908;-84
2022/09/25 08:18:34;;;;;;;;;;;13.20;73.90;;;-151.14;100.00;62537.16;4311902;33;19901;-84
2022/09/25 08:21:02;;;;;;;;;;;13.20;73.90;;;-151.14;100.00;62537.16;4288825;33;20005;-84
2022/09/25 08:23:32;;;;;;;;;;;13.20;74.00;;;-151.14;100.00;62537.16;4288120;33;20236;-85
2022/09/25 08:26:01;;;;;;;;;;;13.20;74.20;;;-151.14;100.00;62537.16;4263923;33;19902;-84
2022/09/25 08:28:30;;;;;;;;;;;13.10;74.30;;;-151.14;100.00;62537.16;4311823;33;19902;-84
2022/09/25 08:31:03;;;;;;;;;;;13.10;74.40;;;-151.14;100.00;62537.16;4288935;33;19944;-85
2022/09/25 08:33:33;;;;;;;;;;;13.10;74.40;;;-151.14;100.00;62537.16;4264036;33;19982;-85
2022/09/25 08:36:03;;;;;;;;;;;13.00;74.40;;;-151.14;100.00;62537.16;4263775;33;19909;-84
2022/09/25 08:38:33;;;;;;;;;;;13.00;74.40;;;-151.14;100.00;62537.16;4263579;33;19909;-85
2022/09/25 08:41:04;;;;;;;;;;;13.00;74.60;;;-151.14;100.00;62537.16;4263733;33;19908;-85
2022/09/25 08:43:35;;;;;;;;;;;13.00;74.60;;;-151.14;100.00;62537.16;4263847;33;20277;-85
2022/09/25 08:49:05;;;;;;;;;;;13.00;74.30;;;-151.14;100.00;62537.16;4289934;33;19902;-85
2022/09/25 08:51:36;;;;;;;;;;;13.00;74.50;;;-151.14;100.00;62537.16;4261544;33;19902;-85
2022/09/25 08:54:06;;;;;;;;;;;13.00;74.50;;;-151.14;100.00;62537.16;4237814;33;19906;-84
2022/09/25 08:56:36;;;;;;;;;;;13.00;74.50;;;-151.14;100.00;62537.16;4261455;33;19910;-85
2022/09/25 08:59:11;;;;;;;;;;;13.00;74.50;;;-151.14;100.00;62537.16;4261177;33;19902;-85
2022/09/25 09:01:46;;;;;;;;;;;13.00;74.50;;;-151.14;100.00;62537.16;4261428;33;20249;-85
2022/09/25 09:04:19;;;;;;;;;;;13.00;74.50;;;-151.14;100.00;62537.16;4237658;33;20114;-85
2022/09/25 09:06:51;;;;;;;;;;;13.00;74.40;;;-151.14;100.00;62537.16;4237378;33;19909;-85
2022/09/25 09:09:28;;;;;;;;;;;13.00;75.30;;;-151.14;100.00;62537.16;4285189;33;20125;-85
2022/09/25 09:12:01;;;;;;;;;;;13.00;74.40;;;-151.14;100.00;62537.16;4261109;33;19916;-84
2022/09/25 09:14:31;;;;;;;;;;;13.00;74.40;;;-151.14;100.00;62537.16;4285145;33;20237;-85
2022/09/25 09:17:00;;;;;;;;;;;13.00;74.20;;;-151.14;100.00;62537.16;4262134;33;19902;-85
2022/09/25 09:19:29;;;;;;;;;;;13.00;74.30;;;-151.14;100.00;62537.16;4260894;33;20013;-85
2022/09/25 09:22:03;;;;;;;;;;;13.00;74.30;;;-151.14;100.00;62537.16;4237417;33;19982;-85
2022/09/25 09:24:40;;;;;;;;;;;13.00;74.30;;;-151.14;100.00;62537.16;4237522;33;19989;-85
2022/09/25 09:27:29;;;;;;;;;;;13.00;74.40;;;-151.14;100.00;62537.16;4284835;33;19969;-84
2022/09/25 09:30:09;;;;;;;;;;;13.00;74.40;;;-151.14;100.00;62537.16;4309101;33;19902;-85
2022/09/25 09:33:06;;;;;;;;;;;13.00;74.40;;;-151.14;100.00;62537.16;4309117;33;19908;-84
2022/09/25 09:35:41;;;;;;;;;;;13.00;74.40;;;-151.14;100.00;62537.16;4252580;33;20137;-85
2022/09/25 09:38:17;;;;;;;;;;;13.00;74.40;;;-151.14;100.00;62537.16;4289618;33;20281;-85
2022/09/25 09:41:07;;;;;;;;;;;13.00;74.50;;;-151.14;100.00;62537.16;4289755;33;19984;-85
2022/09/25 09:43:53;;;;;;;;;;;13.00;74.60;;;-151.14;100.00;62537.16;4289791;33;19902;-85
2022/09/25 09:46:28;;;;;;;;;;;13.00;74.70;;;-151.14;100.00;62537.16;4313862;33;19902;-85
2022/09/25 09:49:05;;;;;;;;;;;13.00;74.70;;;-151.14;100.00;62537.16;4289517;33;19902;-85
2022/09/25 09:51:37;;;;;;;;;;;13.00;74.70;;;-151.14;100.00;62537.16;4289484;33;20210;-85
2022/09/25 09:54:10;;;;;;;;;;;13.00;74.70;;;-151.14;100.00;62537.16;4289510;33;20005;-85
2022/09/25 09:56:41;;;;;;;;;;;13.10;74.70;;;-151.14;100.00;62537.16;4288830;33;19917;-85
2022/09/25 09:59:16;;;;;;;;;;;13.10;74.70;;;-151.14;100.00;62537.16;4289369;33;19909;-85
2022/09/25 10:01:47;;;;;;;;;;;13.10;74.80;;;-151.14;100.00;62537.16;4289353;33;19992;-84
2022/09/25 10:04:18;;;;;;;;;;;13.10;74.70;;;-151.14;100.00;62537.16;4338081;32;19902;-84
2022/09/25 10:06:49;;;;;;;;;;;13.00;74.60;;;-151.14;100.00;62537.16;4313744;33;19981;-85
2022/09/25 10:09:18;;;;;;;;;;;13.00;74.50;;;-151.14;100.00;62537.16;4289182;33;19902;-85
2022/09/25 10:11:52;;;;;;;;;;;13.00;74.50;;;-151.14;100.00;62537.16;4289441;33;19909;-85
2022/09/25 10:14:21;;;;;;;;;;;13.00;74.60;;;-151.14;100.00;62537.16;4289432;33;19902;-85
2022/09/25 10:16:51;;;;;;;;;;;13.00;74.60;;;-151.14;100.00;62537.16;4289340;33;20129;-85
2022/09/25 10:19:21;;;;;;;;;;;13.00;74.60;;;-151.14;100.00;62537.16;4265164;33;19905;-85
2022/09/25 10:21:52;;;;;;;;;;;13.00;74.60;;;-151.14;100.00;62537.16;4289253;33;19902;-85
2022/09/25 10:24:48;;;;;;;;;;;13.00;74.50;;;-151.14;100.00;62537.16;4313428;33;19902;-84
2022/09/25 10:27:27;;;;;;;;;;;13.00;74.70;;;-151.14;100.00;62537.16;4289112;33;19901;-85
2022/09/25 10:30:16;;;;;;;;;;;12.90;74.70;;;-151.14;100.00;62537.16;4313389;33;20118;-85
2022/09/25 10:32:52;;;;;;;;;;;12.90;74.60;;;-151.14;100.00;62537.16;4288933;33;19992;-84
2022/09/25 10:35:22;;;;;;;;;;;12.90;74.70;;;-151.14;100.00;62537.16;4337871;32;19901;-84
2022/09/25 10:37:53;;;;;;;;;;;12.90;74.70;;;-151.14;100.00;62537.16;4288968;33;19902;-84
2022/09/25 10:40:32;;;;;;;;;;;12.90;74.80;;;-151.14;100.00;62537.16;4264990;33;19905;-84
2022/09/25 10:43:24;;;;;;;;;;;12.90;74.90;;;-151.14;100.00;62537.16;4264985;33;19901;-85
2022/09/25 10:46:05;;;;;;;;;;;12.80;74.90;;;-151.14;100.00;62537.16;4288921;33;19902;-84
2022/09/25 10:51:21;;;;;;;;;;;12.80;75.00;;;-151.14;100.00;62537.16;4264860;33;19909;-84
2022/09/25 10:53:50;;;;;;;;;;;12.80;74.90;;;-151.14;100.00;62537.16;4288887;33;20214;-84
2022/09/25 10:56:23;;;;;;;;;;;12.80;75.00;;;-151.14;100.00;62537.16;4288782;33;19909;-84
2022/09/25 10:58:54;;;;;;;;;;;12.90;75.20;;;-151.14;100.00;62537.16;4288740;33;20001;-85
2022/09/25 11:01:30;;;;;;;;;;;12.90;75.20;;;-151.14;100.00;62537.16;4288660;33;19901;-84
2022/09/25 11:03:59;;;;;;;;;;;12.80;75.00;;;-151.14;100.00;62537.16;4288672;33;20007;-84
2022/09/25 11:06:29;;;;;;;;;;;12.90;75.10;;;-151.14;100.00;62537.16;4337472;32;20305;-84
2022/09/25 11:09:08;;;;;;;;;;;12.80;74.80;;;-151.14;100.00;62537.16;4288407;33;19902;-85
2022/09/25 11:11:38;;;;;;;;;;;12.80;74.80;;;-151.14;100.00;62537.16;4264742;33;19996;-84
2022/09/25 11:14:21;;;;;;;;;;;12.80;74.70;;;-151.14;100.00;62537.16;4288568;33;19909;-84
2022/09/25 11:16:54;;;;;;;;;;;12.80;74.80;;;-151.14;100.00;62537.16;4288885;33;22958;-84
2022/09/25 11:19:28;;;;;;;;;;;12.80;74.80;;;-151.14;100.00;62537.16;4264486;33;20000;-84
2022/09/25 11:22:07;;;;;;;;;;;12.80;74.80;;;-151.14;100.00;62537.16;4312576;33;20011;-84
2022/09/25 11:24:45;;;;;;;;;;;12.80;74.80;;;-151.14;100.00;62537.16;4264534;33;19921;-84
2022/09/25 11:27:18;;;;;;;;;;;12.80;74.90;;;-151.14;100.00;62537.16;4288437;33;19931;-84
2022/09/25 11:29:57;;;;;;;;;;;12.80;74.90;;;-151.14;100.00;62537.16;4288465;33;20001;-84